sensor_id;sensor_type;location;lat;lon;timestamp;temperature;humidity
30594;DHT22;33199;47.590;8.300;2023-04-07T00:02:15;12.50;58.70
30594;DHT22;33199;47.590;8.300;2023-04-07T00:04:40;12.50;58.80
30594;DHT22;33199;47.590;8.300;2023-04-07T00:07:06;12.50;58.80
30594;DHT22;33199;47.590;8.300;2023-04-07T00:09:32;12.50;58.80
30594;DHT22;33199;47.590;8.300;2023-04-07T00:11:58;12.50;58.80
30594;DHT22;33199;47.590;8.300;2023-04-07T00:14:26;12.50;58.80
30594;DHT22;33199;47.590;8.300;2023-04-07T00:16:51;12.50;58.80
30594;DHT22;33199;47.590;8.300;2023-04-07T00:19:17;12.40;58.80
30594;DHT22;33199;47.590;8.300;2023-04-07T00:21:43;12.40;58.80
30594;DHT22;33199;47.590;8.300;2023-04-07T00:24:08;12.50;58.90
30594;DHT22;33199;47.590;8.300;2023-04-07T00:26:34;12.40;58.80
30594;DHT22;33199;47.590;8.300;2023-04-07T00:29:00;12.40;58.80
30594;DHT22;33199;47.590;8.300;2023-04-07T00:31:25;12.40;58.80
30594;DHT22;33199;47.590;8.300;2023-04-07T00:33:51;12.40;58.90
30594;DHT22;33199;47.590;8.300;2023-04-07T00:36:17;12.50;58.90
30594;DHT22;33199;47.590;8.300;2023-04-07T00:38:43;12.40;58.90
30594;DHT22;33199;47.590;8.300;2023-04-07T00:41:08;12.40;58.90
30594;DHT22;33199;47.590;8.300;2023-04-07T00:43:34;12.40;58.90
30594;DHT22;33199;47.590;8.300;2023-04-07T00:46:00;12.40;58.90
30594;DHT22;33199;47.590;8.300;2023-04-07T00:48:26;12.40;58.90
30594;DHT22;33199;47.590;8.300;2023-04-07T00:50:51;12.40;59.00
30594;DHT22;33199;47.590;8.300;2023-04-07T00:53:17;12.40;58.90
30594;DHT22;33199;47.590;8.300;2023-04-07T00:55:43;12.40;59.00
30594;DHT22;33199;47.590;8.300;2023-04-07T00:58:09;12.40;59.00
30594;DHT22;33199;47.590;8.300;2023-04-07T01:00:47;12.40;59.10
30594;DHT22;33199;47.590;8.300;2023-04-07T01:03:27;12.40;59.00
30594;DHT22;33199;47.590;8.300;2023-04-07T01:06:01;12.40;59.00
30594;DHT22;33199;47.590;8.300;2023-04-07T01:11:12;12.40;59.10
30594;DHT22;33199;47.590;8.300;2023-04-07T01:13:47;12.40;59.10
30594;DHT22;33199;47.590;8.300;2023-04-07T01:16:22;12.40;59.10
30594;DHT22;33199;47.590;8.300;2023-04-07T01:18:51;12.40;59.10
30594;DHT22;33199;47.590;8.300;2023-04-07T01:21:18;12.40;59.10
30594;DHT22;33199;47.590;8.300;2023-04-07T01:26:34;12.40;59.10
30594;DHT22;33199;47.590;8.300;2023-04-07T01:31:45;12.40;59.20
30594;DHT22;33199;47.590;8.300;2023-04-07T01:34:13;12.30;59.10
30594;DHT22;33199;47.590;8.300;2023-04-07T01:36:41;12.40;59.20
30594;DHT22;33199;47.590;8.300;2023-04-07T01:39:08;12.40;59.70
30594;DHT22;33199;47.590;8.300;2023-04-07T01:41:35;12.40;59.20
30594;DHT22;33199;47.590;8.300;2023-04-07T01:44:02;12.40;59.20
30594;DHT22;33199;47.590;8.300;2023-04-07T01:46:28;12.40;59.20
30594;DHT22;33199;47.590;8.300;2023-04-07T01:48:55;12.30;59.20
30594;DHT22;33199;47.590;8.300;2023-04-07T01:51:22;12.40;59.20
30594;DHT22;33199;47.590;8.300;2023-04-07T01:53:48;12.30;59.20
30594;DHT22;33199;47.590;8.300;2023-04-07T01:56:15;12.40;59.20
30594;DHT22;33199;47.590;8.300;2023-04-07T01:58:41;12.30;59.70
30594;DHT22;33199;47.590;8.300;2023-04-07T02:01:06;12.30;59.30
30594;DHT22;33199;47.590;8.300;2023-04-07T02:03:39;12.30;59.30
30594;DHT22;33199;47.590;8.300;2023-04-07T02:06:08;12.40;59.30
30594;DHT22;33199;47.590;8.300;2023-04-07T02:08:38;12.30;59.20
30594;DHT22;33199;47.590;8.300;2023-04-07T02:11:06;12.30;59.30
30594;DHT22;33199;47.590;8.300;2023-04-07T02:13:34;12.30;59.30
30594;DHT22;33199;47.590;8.300;2023-04-07T02:16:01;12.30;59.30
30594;DHT22;33199;47.590;8.300;2023-04-07T02:18:29;12.30;59.30
30594;DHT22;33199;47.590;8.300;2023-04-07T02:20:57;12.30;59.30
30594;DHT22;33199;47.590;8.300;2023-04-07T02:23:24;12.30;59.30
30594;DHT22;33199;47.590;8.300;2023-04-07T02:25:49;12.30;59.40
30594;DHT22;33199;47.590;8.300;2023-04-07T02:28:15;12.30;59.30
30594;DHT22;33199;47.590;8.300;2023-04-07T02:30:41;12.30;59.30
30594;DHT22;33199;47.590;8.300;2023-04-07T02:33:07;12.30;59.40
30594;DHT22;33199;47.590;8.300;2023-04-07T02:35:32;12.30;59.40
30594;DHT22;33199;47.590;8.300;2023-04-07T02:37:58;12.30;59.30
30594;DHT22;33199;47.590;8.300;2023-04-07T02:40:23;12.30;59.30
30594;DHT22;33199;47.590;8.300;2023-04-07T02:42:49;12.30;59.30
30594;DHT22;33199;47.590;8.300;2023-04-07T02:45:16;12.30;59.30
30594;DHT22;33199;47.590;8.300;2023-04-07T02:47:42;12.30;59.40
30594;DHT22;33199;47.590;8.300;2023-04-07T02:50:07;12.30;59.40
30594;DHT22;33199;47.590;8.300;2023-04-07T02:52:33;12.30;59.40
30594;DHT22;33199;47.590;8.300;2023-04-07T02:54:59;12.20;59.40
30594;DHT22;33199;47.590;8.300;2023-04-07T02:57:25;12.30;59.40
30594;DHT22;33199;47.590;8.300;2023-04-07T02:59:50;12.30;59.40
30594;DHT22;33199;47.590;8.300;2023-04-07T03:02:17;12.20;59.40
30594;DHT22;33199;47.590;8.300;2023-04-07T03:04:43;12.30;59.40
30594;DHT22;33199;47.590;8.300;2023-04-07T03:07:09;12.20;59.40
30594;DHT22;33199;47.590;8.300;2023-04-07T03:09:34;12.20;59.40
30594;DHT22;33199;47.590;8.300;2023-04-07T03:12:01;12.30;59.40
30594;DHT22;33199;47.590;8.300;2023-04-07T03:14:27;12.30;59.40
30594;DHT22;33199;47.590;8.300;2023-04-07T03:16:53;12.20;59.40
30594;DHT22;33199;47.590;8.300;2023-04-07T03:19:18;12.20;59.40
30594;DHT22;33199;47.590;8.300;2023-04-07T03:21:44;12.20;59.40
30594;DHT22;33199;47.590;8.300;2023-04-07T03:24:09;12.20;59.50
30594;DHT22;33199;47.590;8.300;2023-04-07T03:26:35;12.20;59.40
30594;DHT22;33199;47.590;8.300;2023-04-07T03:29:01;12.20;59.50
30594;DHT22;33199;47.590;8.300;2023-04-07T03:31:27;12.20;59.50
30594;DHT22;33199;47.590;8.300;2023-04-07T03:33:52;12.20;60.00
30594;DHT22;33199;47.590;8.300;2023-04-07T03:36:18;12.20;59.50
30594;DHT22;33199;47.590;8.300;2023-04-07T03:38:46;12.20;59.50
30594;DHT22;33199;47.590;8.300;2023-04-07T03:41:11;12.20;59.50
30594;DHT22;33199;47.590;8.300;2023-04-07T03:43:37;12.20;59.50
30594;DHT22;33199;47.590;8.300;2023-04-07T03:46:03;12.20;59.50
30594;DHT22;33199;47.590;8.300;2023-04-07T03:48:28;12.20;59.50
30594;DHT22;33199;47.590;8.300;2023-04-07T03:50:54;12.20;59.60
30594;DHT22;33199;47.590;8.300;2023-04-07T03:53:20;12.20;59.50
30594;DHT22;33199;47.590;8.300;2023-04-07T03:55:46;12.20;59.50
30594;DHT22;33199;47.590;8.300;2023-04-07T03:58:12;12.10;59.50
30594;DHT22;33199;47.590;8.300;2023-04-07T04:00:38;12.10;59.50
30594;DHT22;33199;47.590;8.300;2023-04-07T04:03:03;12.20;59.50
30594;DHT22;33199;47.590;8.300;2023-04-07T04:05:30;12.20;59.50
30594;DHT22;33199;47.590;8.300;2023-04-07T04:07:55;12.20;59.60
30594;DHT22;33199;47.590;8.300;2023-04-07T04:10:21;12.20;59.60
30594;DHT22;33199;47.590;8.300;2023-04-07T04:12:47;12.20;59.60
30594;DHT22;33199;47.590;8.300;2023-04-07T04:15:14;12.20;60.20
30594;DHT22;33199;47.590;8.300;2023-04-07T04:17:40;12.10;59.60
30594;DHT22;33199;47.590;8.300;2023-04-07T04:20:07;12.20;59.60
30594;DHT22;33199;47.590;8.300;2023-04-07T04:22:33;12.10;59.60
30594;DHT22;33199;47.590;8.300;2023-04-07T04:24:59;12.10;59.60
30594;DHT22;33199;47.590;8.300;2023-04-07T04:27:25;12.10;59.60
30594;DHT22;33199;47.590;8.300;2023-04-07T04:29:50;12.10;59.60
30594;DHT22;33199;47.590;8.300;2023-04-07T04:32:16;12.10;59.60
30594;DHT22;33199;47.590;8.300;2023-04-07T04:34:42;12.10;59.70
30594;DHT22;33199;47.590;8.300;2023-04-07T04:37:09;12.10;59.60
30594;DHT22;33199;47.590;8.300;2023-04-07T04:39:35;12.10;59.70
30594;DHT22;33199;47.590;8.300;2023-04-07T04:42:00;12.10;59.70
30594;DHT22;33199;47.590;8.300;2023-04-07T04:44:26;12.10;59.70
30594;DHT22;33199;47.590;8.300;2023-04-07T04:46:52;12.10;59.60
30594;DHT22;33199;47.590;8.300;2023-04-07T04:49:17;12.10;59.70
30594;DHT22;33199;47.590;8.300;2023-04-07T04:51:44;12.10;59.70
30594;DHT22;33199;47.590;8.300;2023-04-07T04:54:10;12.10;59.70
30594;DHT22;33199;47.590;8.300;2023-04-07T04:56:36;12.10;59.70
30594;DHT22;33199;47.590;8.300;2023-04-07T04:59:03;12.10;59.70
30594;DHT22;33199;47.590;8.300;2023-04-07T05:01:30;12.10;59.70
30594;DHT22;33199;47.590;8.300;2023-04-07T05:03:56;12.00;59.70
30594;DHT22;33199;47.590;8.300;2023-04-07T05:06:21;12.10;59.80
30594;DHT22;33199;47.590;8.300;2023-04-07T05:08:47;12.10;59.80
30594;DHT22;33199;47.590;8.300;2023-04-07T05:11:13;12.10;59.80
30594;DHT22;33199;47.590;8.300;2023-04-07T05:13:38;12.10;59.70
30594;DHT22;33199;47.590;8.300;2023-04-07T05:16:04;12.00;59.70
30594;DHT22;33199;47.590;8.300;2023-04-07T05:18:31;12.00;59.70
30594;DHT22;33199;47.590;8.300;2023-04-07T05:20:57;12.00;59.80
30594;DHT22;33199;47.590;8.300;2023-04-07T05:23:23;12.10;59.80
30594;DHT22;33199;47.590;8.300;2023-04-07T05:25:49;12.00;59.80
30594;DHT22;33199;47.590;8.300;2023-04-07T05:28:15;12.00;59.70
30594;DHT22;33199;47.590;8.300;2023-04-07T05:30:41;12.00;59.80
30594;DHT22;33199;47.590;8.300;2023-04-07T05:33:06;12.00;59.80
30594;DHT22;33199;47.590;8.300;2023-04-07T05:35:32;12.00;59.80
30594;DHT22;33199;47.590;8.300;2023-04-07T05:37:58;12.00;59.80
30594;DHT22;33199;47.590;8.300;2023-04-07T05:40:24;12.00;59.80
30594;DHT22;33199;47.590;8.300;2023-04-07T05:42:49;12.00;59.80
30594;DHT22;33199;47.590;8.300;2023-04-07T05:45:16;12.00;59.80
30594;DHT22;33199;47.590;8.300;2023-04-07T05:47:42;12.00;59.80
30594;DHT22;33199;47.590;8.300;2023-04-07T05:50:08;12.00;59.80
30594;DHT22;33199;47.590;8.300;2023-04-07T05:52:33;12.00;59.80
30594;DHT22;33199;47.590;8.300;2023-04-07T05:54:59;12.00;59.90
30594;DHT22;33199;47.590;8.300;2023-04-07T05:57:25;12.00;59.90
30594;DHT22;33199;47.590;8.300;2023-04-07T05:59:52;12.00;59.90
30594;DHT22;33199;47.590;8.300;2023-04-07T06:02:18;12.00;59.90
30594;DHT22;33199;47.590;8.300;2023-04-07T06:04:44;12.00;59.90
30594;DHT22;33199;47.590;8.300;2023-04-07T06:07:09;12.00;59.90
30594;DHT22;33199;47.590;8.300;2023-04-07T06:09:35;12.00;59.90
30594;DHT22;33199;47.590;8.300;2023-04-07T06:12:00;12.00;59.90
30594;DHT22;33199;47.590;8.300;2023-04-07T06:14:29;12.00;59.90
30594;DHT22;33199;47.590;8.300;2023-04-07T06:16:55;12.00;59.90
30594;DHT22;33199;47.590;8.300;2023-04-07T06:19:20;12.00;59.90
30594;DHT22;33199;47.590;8.300;2023-04-07T06:21:46;12.00;59.90
30594;DHT22;33199;47.590;8.300;2023-04-07T06:24:13;12.00;59.90
30594;DHT22;33199;47.590;8.300;2023-04-07T06:26:39;12.00;59.90
30594;DHT22;33199;47.590;8.300;2023-04-07T06:29:05;12.00;59.90
30594;DHT22;33199;47.590;8.300;2023-04-07T06:31:30;11.90;59.90
30594;DHT22;33199;47.590;8.300;2023-04-07T06:33:56;11.90;59.90
30594;DHT22;33199;47.590;8.300;2023-04-07T06:36:23;11.90;60.00
30594;DHT22;33199;47.590;8.300;2023-04-07T06:38:49;11.90;59.90
30594;DHT22;33199;47.590;8.300;2023-04-07T06:41:15;11.90;59.90
30594;DHT22;33199;47.590;8.300;2023-04-07T06:43:45;11.90;59.90
30594;DHT22;33199;47.590;8.300;2023-04-07T06:46:11;11.90;59.90
30594;DHT22;33199;47.590;8.300;2023-04-07T06:48:36;11.90;60.00
30594;DHT22;33199;47.590;8.300;2023-04-07T06:51:02;11.90;60.00
30594;DHT22;33199;47.590;8.300;2023-04-07T06:53:27;11.90;60.00
30594;DHT22;33199;47.590;8.300;2023-04-07T06:56:07;11.90;60.00
30594;DHT22;33199;47.590;8.300;2023-04-07T06:58:34;11.90;60.00
30594;DHT22;33199;47.590;8.300;2023-04-07T07:01:00;11.90;60.00
30594;DHT22;33199;47.590;8.300;2023-04-07T07:03:26;11.90;60.10
30594;DHT22;33199;47.590;8.300;2023-04-07T07:05:54;11.90;60.10
30594;DHT22;33199;47.590;8.300;2023-04-07T07:08:23;11.90;60.00
30594;DHT22;33199;47.590;8.300;2023-04-07T07:10:49;11.90;60.00
30594;DHT22;33199;47.590;8.300;2023-04-07T07:13:15;11.90;60.00
30594;DHT22;33199;47.590;8.300;2023-04-07T07:15:41;11.90;60.00
30594;DHT22;33199;47.590;8.300;2023-04-07T07:18:06;11.90;60.00
30594;DHT22;33199;47.590;8.300;2023-04-07T07:20:32;11.90;60.10
30594;DHT22;33199;47.590;8.300;2023-04-07T07:22:59;11.90;60.10
30594;DHT22;33199;47.590;8.300;2023-04-07T07:25:24;11.90;60.10
30594;DHT22;33199;47.590;8.300;2023-04-07T07:27:53;11.90;60.20
30594;DHT22;33199;47.590;8.300;2023-04-07T07:30:22;11.90;60.90
30594;DHT22;33199;47.590;8.300;2023-04-07T07:32:48;11.90;60.20
30594;DHT22;33199;47.590;8.300;2023-04-07T07:35:14;11.90;60.10
30594;DHT22;33199;47.590;8.300;2023-04-07T07:37:40;11.90;60.20
30594;DHT22;33199;47.590;8.300;2023-04-07T07:40:06;11.90;60.10
30594;DHT22;33199;47.590;8.300;2023-04-07T07:42:32;11.90;60.10
30594;DHT22;33199;47.590;8.300;2023-04-07T07:44:58;11.90;60.90
30594;DHT22;33199;47.590;8.300;2023-04-07T07:47:25;11.90;60.10
30594;DHT22;33199;47.590;8.300;2023-04-07T07:49:51;11.80;60.10
30594;DHT22;33199;47.590;8.300;2023-04-07T07:52:16;11.80;60.20
30594;DHT22;33199;47.590;8.300;2023-04-07T07:54:43;11.90;60.20
30594;DHT22;33199;47.590;8.300;2023-04-07T07:57:09;11.80;60.20
30594;DHT22;33199;47.590;8.300;2023-04-07T07:59:35;11.80;60.20
30594;DHT22;33199;47.590;8.300;2023-04-07T08:02:00;11.80;60.20
30594;DHT22;33199;47.590;8.300;2023-04-07T08:04:26;11.90;60.20
30594;DHT22;33199;47.590;8.300;2023-04-07T08:06:52;11.80;60.20
30594;DHT22;33199;47.590;8.300;2023-04-07T08:09:18;11.80;60.20
30594;DHT22;33199;47.590;8.300;2023-04-07T08:11:44;11.80;60.20
30594;DHT22;33199;47.590;8.300;2023-04-07T08:14:13;11.80;60.20
30594;DHT22;33199;47.590;8.300;2023-04-07T08:16:38;11.80;60.30
30594;DHT22;33199;47.590;8.300;2023-04-07T08:19:04;11.80;60.30
30594;DHT22;33199;47.590;8.300;2023-04-07T08:21:29;11.80;60.30
30594;DHT22;33199;47.590;8.300;2023-04-07T08:23:56;11.80;60.30
30594;DHT22;33199;47.590;8.300;2023-04-07T08:26:22;11.80;60.30
30594;DHT22;33199;47.590;8.300;2023-04-07T08:28:48;11.80;60.30
30594;DHT22;33199;47.590;8.300;2023-04-07T08:31:16;11.80;60.30
30594;DHT22;33199;47.590;8.300;2023-04-07T08:33:42;11.80;60.30
30594;DHT22;33199;47.590;8.300;2023-04-07T08:36:07;11.80;60.30
30594;DHT22;33199;47.590;8.300;2023-04-07T08:38:33;11.80;60.30
30594;DHT22;33199;47.590;8.300;2023-04-07T08:41:19;11.80;60.30
30594;DHT22;33199;47.590;8.300;2023-04-07T08:43:46;11.80;60.30
30594;DHT22;33199;47.590;8.300;2023-04-07T08:46:13;11.80;60.30
30594;DHT22;33199;47.590;8.300;2023-04-07T08:48:43;11.80;60.30
30594;DHT22;33199;47.590;8.300;2023-04-07T08:51:09;11.80;60.30
30594;DHT22;33199;47.590;8.300;2023-04-07T08:53:47;11.80;60.30
30594;DHT22;33199;47.590;8.300;2023-04-07T08:56:15;11.70;60.20
30594;DHT22;33199;47.590;8.300;2023-04-07T08:58:41;11.80;60.30
30594;DHT22;33199;47.590;8.300;2023-04-07T09:01:08;11.80;60.30
30594;DHT22;33199;47.590;8.300;2023-04-07T09:03:34;11.80;60.30
30594;DHT22;33199;47.590;8.300;2023-04-07T09:06:00;11.80;60.30
30594;DHT22;33199;47.590;8.300;2023-04-07T09:08:27;11.80;60.30
30594;DHT22;33199;47.590;8.300;2023-04-07T09:10:53;11.80;60.40
30594;DHT22;33199;47.590;8.300;2023-04-07T09:13:19;11.80;60.30
30594;DHT22;33199;47.590;8.300;2023-04-07T09:15:45;11.80;60.30
30594;DHT22;33199;47.590;8.300;2023-04-07T09:18:10;11.80;60.30
30594;DHT22;33199;47.590;8.300;2023-04-07T09:21:02;11.80;60.30
30594;DHT22;33199;47.590;8.300;2023-04-07T09:25:54;11.70;60.30
30594;DHT22;33199;47.590;8.300;2023-04-07T09:28:23;11.80;60.40
30594;DHT22;33199;47.590;8.300;2023-04-07T09:30:52;11.70;60.30
30594;DHT22;33199;47.590;8.300;2023-04-07T09:33:29;11.80;60.40
30594;DHT22;33199;47.590;8.300;2023-04-07T09:35:54;11.70;60.40
30594;DHT22;33199;47.590;8.300;2023-04-07T09:38:21;11.70;60.40
30594;DHT22;33199;47.590;8.300;2023-04-07T09:40:47;11.70;60.50
30594;DHT22;33199;47.590;8.300;2023-04-07T09:43:18;11.80;60.50
30594;DHT22;33199;47.590;8.300;2023-04-07T09:45:43;11.70;60.40
30594;DHT22;33199;47.590;8.300;2023-04-07T09:48:19;11.70;60.40
30594;DHT22;33199;47.590;8.300;2023-04-07T09:50:45;11.70;60.40
30594;DHT22;33199;47.590;8.300;2023-04-07T09:53:14;11.70;60.40
30594;DHT22;33199;47.590;8.300;2023-04-07T09:55:41;11.80;60.50
30594;DHT22;33199;47.590;8.300;2023-04-07T09:58:10;11.70;60.40
30594;DHT22;33199;47.590;8.300;2023-04-07T10:00:41;11.70;60.50
30594;DHT22;33199;47.590;8.300;2023-04-07T10:03:07;11.70;60.50
30594;DHT22;33199;47.590;8.300;2023-04-07T10:05:34;11.70;60.50
30594;DHT22;33199;47.590;8.300;2023-04-07T10:08:02;11.70;60.50
30594;DHT22;33199;47.590;8.300;2023-04-07T10:10:29;11.70;60.60
30594;DHT22;33199;47.590;8.300;2023-04-07T10:12:56;11.70;60.50
30594;DHT22;33199;47.590;8.300;2023-04-07T10:15:22;11.70;60.60
30594;DHT22;33199;47.590;8.300;2023-04-07T10:17:49;11.70;60.60
30594;DHT22;33199;47.590;8.300;2023-04-07T10:20:17;11.70;60.60
30594;DHT22;33199;47.590;8.300;2023-04-07T10:22:46;11.70;60.60
30594;DHT22;33199;47.590;8.300;2023-04-07T10:25:13;11.70;60.60
30594;DHT22;33199;47.590;8.300;2023-04-07T10:27:42;11.70;60.60
30594;DHT22;33199;47.590;8.300;2023-04-07T10:30:17;11.70;60.60
30594;DHT22;33199;47.590;8.300;2023-04-07T10:32:49;11.70;60.60
30594;DHT22;33199;47.590;8.300;2023-04-07T10:35:15;11.80;60.70
30594;DHT22;33199;47.590;8.300;2023-04-07T10:40:35;11.70;60.60
30594;DHT22;33199;47.590;8.300;2023-04-07T10:43:01;11.70;60.60
30594;DHT22;33199;47.590;8.300;2023-04-07T10:48:16;11.70;60.70
30594;DHT22;33199;47.590;8.300;2023-04-07T10:50:44;11.70;60.70
30594;DHT22;33199;47.590;8.300;2023-04-07T10:53:14;11.70;60.70
30594;DHT22;33199;47.590;8.300;2023-04-07T10:55:45;11.70;60.80
30594;DHT22;33199;47.590;8.300;2023-04-07T11:03:30;11.70;60.80
30594;DHT22;33199;47.590;8.300;2023-04-07T11:06:07;11.70;60.70
30594;DHT22;33199;47.590;8.300;2023-04-07T11:08:43;11.70;60.80
30594;DHT22;33199;47.590;8.300;2023-04-07T11:11:11;11.70;60.80
30594;DHT22;33199;47.590;8.300;2023-04-07T11:13:47;11.70;60.80
30594;DHT22;33199;47.590;8.300;2023-04-07T11:16:14;11.70;60.80
30594;DHT22;33199;47.590;8.300;2023-04-07T11:18:41;11.70;60.80
30594;DHT22;33199;47.590;8.300;2023-04-07T11:21:07;11.70;60.80
30594;DHT22;33199;47.590;8.300;2023-04-07T11:23:38;11.70;60.80
30594;DHT22;33199;47.590;8.300;2023-04-07T11:26:04;11.70;60.80
30594;DHT22;33199;47.590;8.300;2023-04-07T11:28:30;11.70;60.80
30594;DHT22;33199;47.590;8.300;2023-04-07T11:30:56;11.70;60.80
30594;DHT22;33199;47.590;8.300;2023-04-07T11:33:25;11.70;60.80
30594;DHT22;33199;47.590;8.300;2023-04-07T11:38:21;11.70;60.80
30594;DHT22;33199;47.590;8.300;2023-04-07T11:40:47;11.70;60.80
30594;DHT22;33199;47.590;8.300;2023-04-07T11:43:18;11.70;60.80
30594;DHT22;33199;47.590;8.300;2023-04-07T11:45:44;11.70;60.80
30594;DHT22;33199;47.590;8.300;2023-04-07T11:48:28;11.70;60.90
30594;DHT22;33199;47.590;8.300;2023-04-07T11:50:54;11.70;60.80
30594;DHT22;33199;47.590;8.300;2023-04-07T11:53:30;11.70;60.80
30594;DHT22;33199;47.590;8.300;2023-04-07T11:58:30;11.70;60.90
30594;DHT22;33199;47.590;8.300;2023-04-07T12:01:01;11.70;60.90
30594;DHT22;33199;47.590;8.300;2023-04-07T12:03:34;11.70;60.90
30594;DHT22;33199;47.590;8.300;2023-04-07T12:06:03;11.70;61.00
30594;DHT22;33199;47.590;8.300;2023-04-07T12:08:56;11.70;61.00
30594;DHT22;33199;47.590;8.300;2023-04-07T12:11:21;11.70;61.00
30594;DHT22;33199;47.590;8.300;2023-04-07T12:13:47;11.70;61.00
30594;DHT22;33199;47.590;8.300;2023-04-07T12:16:12;11.70;61.00
30594;DHT22;33199;47.590;8.300;2023-04-07T12:18:38;11.70;61.00
30594;DHT22;33199;47.590;8.300;2023-04-07T12:21:04;11.70;61.00
30594;DHT22;33199;47.590;8.300;2023-04-07T12:23:30;11.70;61.00
30594;DHT22;33199;47.590;8.300;2023-04-07T12:25:55;11.70;61.10
30594;DHT22;33199;47.590;8.300;2023-04-07T12:28:21;11.70;61.10
30594;DHT22;33199;47.590;8.300;2023-04-07T12:30:47;11.70;61.10
30594;DHT22;33199;47.590;8.300;2023-04-07T12:33:13;11.70;61.00
30594;DHT22;33199;47.590;8.300;2023-04-07T12:35:38;11.70;61.10
30594;DHT22;33199;47.590;8.300;2023-04-07T12:38:05;11.70;61.10
30594;DHT22;33199;47.590;8.300;2023-04-07T12:40:30;11.70;61.90
30594;DHT22;33199;47.590;8.300;2023-04-07T12:42:56;11.70;61.10
30594;DHT22;33199;47.590;8.300;2023-04-07T12:45:23;11.70;61.10
30594;DHT22;33199;47.590;8.300;2023-04-07T12:47:48;11.70;61.20
30594;DHT22;33199;47.590;8.300;2023-04-07T12:50:14;11.70;61.20
30594;DHT22;33199;47.590;8.300;2023-04-07T12:52:40;11.70;61.20
30594;DHT22;33199;47.590;8.300;2023-04-07T12:55:06;11.70;61.20
30594;DHT22;33199;47.590;8.300;2023-04-07T12:57:32;11.70;61.20
30594;DHT22;33199;47.590;8.300;2023-04-07T12:59:58;11.70;61.20
30594;DHT22;33199;47.590;8.300;2023-04-07T13:02:23;11.70;61.20
30594;DHT22;33199;47.590;8.300;2023-04-07T13:04:49;11.70;61.20
30594;DHT22;33199;47.590;8.300;2023-04-07T13:07:15;11.70;61.20
30594;DHT22;33199;47.590;8.300;2023-04-07T13:09:41;11.70;61.20
30594;DHT22;33199;47.590;8.300;2023-04-07T13:12:10;11.70;61.20
30594;DHT22;33199;47.590;8.300;2023-04-07T13:14:40;11.70;61.20
30594;DHT22;33199;47.590;8.300;2023-04-07T13:17:07;11.70;61.20
30594;DHT22;33199;47.590;8.300;2023-04-07T13:19:33;11.70;61.20
30594;DHT22;33199;47.590;8.300;2023-04-07T13:21:59;11.70;61.20
30594;DHT22;33199;47.590;8.300;2023-04-07T13:24:25;11.70;61.20
30594;DHT22;33199;47.590;8.300;2023-04-07T13:26:51;11.70;61.20
30594;DHT22;33199;47.590;8.300;2023-04-07T13:29:17;11.70;61.20
30594;DHT22;33199;47.590;8.300;2023-04-07T13:31:46;11.70;61.20
30594;DHT22;33199;47.590;8.300;2023-04-07T13:34:13;11.70;61.20
30594;DHT22;33199;47.590;8.300;2023-04-07T13:36:39;11.70;62.00
30594;DHT22;33199;47.590;8.300;2023-04-07T13:39:06;11.70;61.20
30594;DHT22;33199;47.590;8.300;2023-04-07T13:41:31;11.70;61.20
30594;DHT22;33199;47.590;8.300;2023-04-07T13:43:57;11.70;61.20
30594;DHT22;33199;47.590;8.300;2023-04-07T13:46:24;11.70;61.20
30594;DHT22;33199;47.590;8.300;2023-04-07T13:48:50;11.70;61.20
30594;DHT22;33199;47.590;8.300;2023-04-07T13:51:16;11.70;61.20
30594;DHT22;33199;47.590;8.300;2023-04-07T13:53:44;11.70;61.30
30594;DHT22;33199;47.590;8.300;2023-04-07T13:56:11;11.70;61.30
30594;DHT22;33199;47.590;8.300;2023-04-07T13:58:36;11.70;61.30
30594;DHT22;33199;47.590;8.300;2023-04-07T14:01:02;11.70;61.30
30594;DHT22;33199;47.590;8.300;2023-04-07T14:03:30;11.70;61.30
30594;DHT22;33199;47.590;8.300;2023-04-07T14:05:56;11.70;61.30
30594;DHT22;33199;47.590;8.300;2023-04-07T14:08:26;11.70;61.30
30594;DHT22;33199;47.590;8.300;2023-04-07T14:10:52;11.70;61.30
30594;DHT22;33199;47.590;8.300;2023-04-07T14:13:17;11.70;61.30
30594;DHT22;33199;47.590;8.300;2023-04-07T14:15:43;11.70;61.40
30594;DHT22;33199;47.590;8.300;2023-04-07T14:18:09;11.70;61.40
30594;DHT22;33199;47.590;8.300;2023-04-07T14:20:35;11.70;61.40
30594;DHT22;33199;47.590;8.300;2023-04-07T14:23:01;11.70;61.40
30594;DHT22;33199;47.590;8.300;2023-04-07T14:25:26;11.70;61.40
30594;DHT22;33199;47.590;8.300;2023-04-07T14:27:52;11.70;61.40
30594;DHT22;33199;47.590;8.300;2023-04-07T14:30:18;11.70;61.40
30594;DHT22;33199;47.590;8.300;2023-04-07T14:32:43;11.70;61.40
30594;DHT22;33199;47.590;8.300;2023-04-07T14:35:10;11.70;61.40
30594;DHT22;33199;47.590;8.300;2023-04-07T14:37:37;11.70;61.40
30594;DHT22;33199;47.590;8.300;2023-04-07T14:40:03;11.70;61.50
30594;DHT22;33199;47.590;8.300;2023-04-07T14:42:29;11.70;61.50
30594;DHT22;33199;47.590;8.300;2023-04-07T14:44:55;11.70;61.50
30594;DHT22;33199;47.590;8.300;2023-04-07T14:47:21;11.70;61.50
30594;DHT22;33199;47.590;8.300;2023-04-07T14:49:46;11.70;61.50
30594;DHT22;33199;47.590;8.300;2023-04-07T14:52:12;11.70;61.50
30594;DHT22;33199;47.590;8.300;2023-04-07T14:54:38;11.80;61.60
30594;DHT22;33199;47.590;8.300;2023-04-07T14:57:04;11.80;61.60
30594;DHT22;33199;47.590;8.300;2023-04-07T14:59:30;11.80;61.60
30594;DHT22;33199;47.590;8.300;2023-04-07T15:01:56;11.80;61.60
30594;DHT22;33199;47.590;8.300;2023-04-07T15:04:21;11.80;61.70
30594;DHT22;33199;47.590;8.300;2023-04-07T15:06:47;11.80;61.60
30594;DHT22;33199;47.590;8.300;2023-04-07T15:09:13;11.80;61.50
30594;DHT22;33199;47.590;8.300;2023-04-07T15:11:38;11.80;61.50
30594;DHT22;33199;47.590;8.300;2023-04-07T15:14:04;11.80;61.50
30594;DHT22;33199;47.590;8.300;2023-04-07T15:16:31;11.80;61.60
30594;DHT22;33199;47.590;8.300;2023-04-07T15:18:56;11.80;61.60
30594;DHT22;33199;47.590;8.300;2023-04-07T15:21:22;11.80;61.50
30594;DHT22;33199;47.590;8.300;2023-04-07T15:23:48;11.80;61.50
30594;DHT22;33199;47.590;8.300;2023-04-07T15:26:13;11.80;61.60
30594;DHT22;33199;47.590;8.300;2023-04-07T15:28:39;11.80;61.60
30594;DHT22;33199;47.590;8.300;2023-04-07T15:31:05;11.80;61.60
30594;DHT22;33199;47.590;8.300;2023-04-07T15:33:37;11.80;61.60
30594;DHT22;33199;47.590;8.300;2023-04-07T15:36:04;11.90;61.70
30594;DHT22;33199;47.590;8.300;2023-04-07T15:38:30;11.80;61.60
30594;DHT22;33199;47.590;8.300;2023-04-07T15:40:55;11.80;60.70
30594;DHT22;33199;47.590;8.300;2023-04-07T15:43:21;11.80;59.60
30594;DHT22;33199;47.590;8.300;2023-04-07T15:45:47;11.70;60.20
30594;DHT22;33199;47.590;8.300;2023-04-07T15:48:13;11.70;60.00
30594;DHT22;33199;47.590;8.300;2023-04-07T15:50:39;11.80;60.30
30594;DHT22;33199;47.590;8.300;2023-04-07T15:53:05;11.80;60.40
30594;DHT22;33199;47.590;8.300;2023-04-07T15:55:31;11.80;60.50